Terminal Aerodrome Forecast
Issued by NWS Sterling, VA

Current Version | Previous Version | Text Only | Print | Product List | Glossary Off
Versions: 1 2 3 4 5 6 7 8 9 10 11 12 13 14 15 16 17 18 19 20 21 22 23 24 25 26

000
FTUS41 KLWX 010708 AAA
TAFIAD
TAF AMD
KIAD 010708Z 0107/0212 15007KT P6SM -RA BKN008 OVC012
     FM010900 15008KT 5SM -RA BR BKN006 OVC015
     FM011600 16007KT 6SM BR OVC008
     FM012100 17006KT P6SM -SHRA OVC015
     FM020300 13005KT 2SM -SHRA BR BKN010
     FM020600 13004KT 1SM -SHRA BR BKN015
     FM020900 14004KT 2SM BR OVC030
     FM021100 21004KT 2SM BR BKN030=

USA.gov is the U.S. government's official web portal to all federal, state and local government web resources and services.